Accueil
METAR-TAF:

METAR-TAF

Aéroports :

Sidney-Richland Municipal Airport

Sidney, Montana, États-Unis

latitude: 47-42N, longitude: 104-12W, altitude: 605 m

Observation

Le bulletin a été fait il y a 32 minutes, à 23:56 UTC
Vent calme
Température -16°C
Humidité 84%
Pression 1033 hPa
Visibilité: 16.1 km
Ciel clair

METAR: KSDY 112356Z AUTO 00000KT 10SM CLR M16/M18 A3049 RMK AO2 SLP717 T11561183 11122 21156 56031 FZRANO

Heure: 17:28 (00:28 UTC)

Prévision

Le bulletin a été fait il y a 1 heure et 8 minutes, à 23:20 UTC
Prévision valable du 12 à 00 UTC au 12 à 24 UTC
Vent 8 kt de sud/sud-ouest
Visibilité: 10 km
Ciel clair
A partir de 12 à 2100 UTC
Vent 8 kt de ouest
Visibilité: 10 km
Nuages fragmentés à une hauteur de 12000 ft

TAF: KSDY 112320Z 1200/1224 21008KT P6SM SKC FM122100 27008KT P6SM BKN120

Observations et prévisions météorologiques de plus de 4000 aéroports (messages METAR et TAF).

Les stations disponibles sont représentées par des disques jaunes et rouges sur la carte.

Passer la souris dessus pour voir le nom de la station.

Cliquer dessus pour voir les observations et prévisions météorologiques.

Pour changer de carte: cliquez sur les boutons verts avec une croix noire pour zoomer, sur le bouton vert avec un tiret pour effectuer un zoom arrière, ou sur les flèches vertes pour les cartes adjacentes.


METAR-TAF: